7FD6 weather

Loxahatchee Airport
Lake Worth, Florida, United States

Public forecast

Using degrees Fahrenheit for public forecast. Weather courtesy of forecast.io.

Closest aviation weather report (METAR) to Loxahatchee Airport

Closest report is Palm Beach International Airport, 11.8 nm (21.9 km) ENE. Retrieved 2020/06/07 05:53 UTC (51 minutes ago):

KPBI 070553Z 15009KT 10SM FEW020 OVC190 28/25 A2998 RMK AO2 SLP150 T02780250 10283 20278 58005

Closest aviation forecast (TAF) to Loxahatchee Airport

Closest forecast is Palm Beach International Airport, 11.8 nm (21.9 km) ENE. Retrieved 2020/06/07 06:45 UTC (0 seconds ago):

TAF KPBI 070538Z 0706/0806 15010KT P6SM FEW025 SCT050 BKN250 FM071200 15015KT P6SM VCSH SCT020 SCT035 BKN250 FM071800 16015KT P6SM VCTS SCT025CB BKN040 FM080100 14009KT P6SM SCT025 OVC250